Lake Lynn, Pennsylvania
Current Conditions -  °F | °C
As of 2:53 AM on Monday 22 Dec 2014 (Local Time) from KMGW Reporting Station
Clear Clear  
Wind Chill: 27°   Ceiling: Unl
Heat Index: 33°   Visibility: 10mi
Dew Point: 22°   Wind: 7mph
Humidity: 64%   Direction: 100°E
Pressure: 30.13"   Gusts: NA
Location:  39.72°N, 79.86°W
Report Text: KMGW 220753Z AUTO 10006KT 10SM CLR 01/M06 A3013 RMK AO2 SLP212 T00061056 TSNO
Loading
Personal Weather Stations






























Interactive Weather Map New forecast layout! Learn more

10-Day Weather Forecast

Advertisements
Track Severe Weather on mobile